createdAt,value
2022-09-17T00:00:50.590Z,101300.91
2022-09-17T00:03:17.815Z,101301.78
2022-09-17T00:05:44.879Z,101301.75
2022-09-17T00:08:14.754Z,101297.34
2022-09-17T00:10:43.806Z,101298.22
2022-09-17T00:13:11.149Z,101297.34
2022-09-17T00:15:45.371Z,101307.03
2022-09-17T00:18:13.156Z,101313.19
2022-09-17T00:20:40.909Z,101319.31
2022-09-17T00:23:08.438Z,101313.16
2022-09-17T00:25:37.425Z,101308.72
2022-09-17T00:28:03.746Z,101307.84
2022-09-17T00:30:30.216Z,101316.66
2022-09-17T00:32:58.306Z,101314.00
2022-09-17T00:35:25.926Z,101313.97
2022-09-17T00:37:52.407Z,101310.47
2022-09-17T00:40:20.968Z,101320.13
2022-09-17T00:42:47.882Z,101316.63
2022-09-17T00:45:14.433Z,101317.53
2022-09-17T00:47:45.828Z,101325.44
2022-09-17T00:50:20.123Z,101323.63
2022-09-17T00:52:55.371Z,101309.56
2022-09-17T00:55:28.985Z,101324.47
2022-09-17T00:57:58.837Z,101318.28
2022-09-17T01:00:26.319Z,101311.25
2022-09-17T01:02:54.215Z,101320.91
2022-09-17T01:05:49.222Z,101308.59
2022-09-17T01:08:35.701Z,101315.66
2022-09-17T01:11:26.275Z,101317.41
2022-09-17T01:14:30.254Z,101311.25
2022-09-17T01:17:23.178Z,101319.16
2022-09-17T01:20:20.321Z,101325.31
2022-09-17T01:22:58.612Z,101312.97
2022-09-17T01:25:38.425Z,101333.22
2022-09-17T01:28:23.725Z,101328.81
2022-09-17T01:31:12.427Z,101331.44
2022-09-17T01:34:01.442Z,101336.72
2022-09-17T01:36:36.813Z,101339.38
2022-09-17T01:39:12.379Z,101336.75
2022-09-17T01:41:50.886Z,101338.53
2022-09-17T01:44:26.743Z,101326.22
2022-09-17T01:47:24.217Z,101323.59
2022-09-17T01:49:56.113Z,101323.59
2022-09-17T01:52:24.834Z,101329.75
2022-09-17T01:54:56.249Z,101330.63
2022-09-17T01:57:28.817Z,101332.41
2022-09-17T02:00:01.734Z,101342.03
2022-09-17T02:02:36.558Z,101345.59
2022-09-17T02:05:16.118Z,101352.59
2022-09-17T02:07:47.853Z,101347.31
2022-09-17T02:10:18.807Z,101350.81
2022-09-17T02:12:50.454Z,101349.03
2022-09-17T02:15:23.241Z,101343.78
2022-09-17T02:17:55.790Z,101342.84
2022-09-17T02:20:30.033Z,101350.78
2022-09-17T02:23:06.514Z,101346.31
2022-09-17T02:25:53.275Z,101350.72
2022-09-17T02:28:28.873Z,101353.41
2022-09-17T02:30:55.433Z,101356.94
2022-09-17T02:33:23.082Z,101359.59
2022-09-17T02:35:49.533Z,101357.81
2022-09-17T02:38:24.449Z,101364.84
2022-09-17T02:40:58.777Z,101362.16
2022-09-17T02:43:41.704Z,101365.69
2022-09-17T02:46:36.095Z,101366.53
2022-09-17T02:49:43.633Z,101364.75
2022-09-17T02:52:28.334Z,101374.38
2022-09-17T02:55:02.254Z,101375.25
2022-09-17T02:57:39.939Z,101371.75
2022-09-17T03:00:18.195Z,101364.69
2022-09-17T03:02:56.292Z,101357.66
2022-09-17T03:05:23.965Z,101354.97
2022-09-17T03:07:50.592Z,101354.06
2022-09-17T03:10:17.692Z,101356.72
2022-09-17T03:12:44.206Z,101359.34
2022-09-17T03:15:10.747Z,101354.97
2022-09-17T03:17:37.357Z,101354.97
2022-09-17T03:20:05.033Z,101355.81
2022-09-17T03:22:31.911Z,101351.41
2022-09-17T03:24:58.501Z,101354.06
2022-09-17T03:27:24.806Z,101351.38
2022-09-17T03:29:51.477Z,101339.09
2022-09-17T03:32:17.813Z,101343.50
2022-09-17T03:34:44.813Z,101350.50
2022-09-17T03:37:11.128Z,101346.06
2022-09-17T03:39:37.459Z,101348.69
2022-09-17T03:42:03.975Z,101361.84
2022-09-17T03:44:30.271Z,101368.84
2022-09-17T03:46:58.778Z,101381.16
2022-09-17T03:49:25.199Z,101378.47
2022-09-17T03:51:51.597Z,101374.91
2022-09-17T03:54:17.979Z,101373.94
2022-09-17T03:56:44.378Z,101379.22
2022-09-17T03:59:11.225Z,101365.16
2022-09-17T04:01:37.672Z,101359.03
2022-09-17T04:04:04.645Z,101352.03
2022-09-17T04:06:31.130Z,101366.13
2022-09-17T04:08:58.086Z,101364.41
2022-09-17T04:11:26.271Z,101372.31
2022-09-17T04:13:52.791Z,101371.44
2022-09-17T04:16:19.229Z,101367.91
2022-09-17T04:18:45.708Z,101381.97
2022-09-17T04:21:12.381Z,101388.13
2022-09-17T04:23:38.785Z,101386.38
2022-09-17T04:26:05.477Z,101379.31
2022-09-17T04:28:31.782Z,101389.81
2022-09-17T04:30:58.230Z,101383.63
2022-09-17T04:33:24.679Z,101380.94
2022-09-17T04:35:51.191Z,101380.97
2022-09-17T04:38:20.437Z,101387.09
2022-09-17T04:40:47.036Z,101383.63
2022-09-17T04:43:13.734Z,101383.63
2022-09-17T04:45:40.196Z,101380.91
2022-09-17T04:48:06.752Z,101387.03
2022-09-17T04:50:33.301Z,101383.56
2022-09-17T04:52:59.803Z,101383.56
2022-09-17T04:55:27.726Z,101387.03
2022-09-17T04:57:54.553Z,101385.25
2022-09-17T05:00:22.951Z,101387.03
2022-09-17T05:02:51.473Z,101402.81
2022-09-17T05:05:18.874Z,101398.41
2022-09-17T05:07:45.817Z,101395.78
2022-09-17T05:10:13.544Z,101403.72
2022-09-17T05:12:39.992Z,101400.19
2022-09-17T05:15:07.318Z,101406.34
2022-09-17T05:17:33.678Z,101392.31
2022-09-17T05:20:00.042Z,101391.47
2022-09-17T05:22:26.391Z,101400.28
2022-09-17T05:24:52.956Z,101398.50
2022-09-17T05:27:19.347Z,101399.41
2022-09-17T05:29:45.799Z,101407.28
2022-09-17T05:32:12.349Z,101410.00
2022-09-17T05:34:38.836Z,101414.41
2022-09-17T05:37:05.356Z,101422.34
2022-09-17T05:39:32.967Z,101421.47
2022-09-17T05:41:59.575Z,101422.38
2022-09-17T05:44:25.951Z,101417.13
2022-09-17T05:46:53.534Z,101424.19
2022-09-17T05:49:20.094Z,101420.66
2022-09-17T05:51:46.443Z,101425.97
2022-09-17T05:54:12.766Z,101414.56
2022-09-17T05:56:39.104Z,101417.28
2022-09-17T05:59:05.557Z,101412.91
2022-09-17T06:01:32.612Z,101420.84
2022-09-17T06:03:59.051Z,101412.09
2022-09-17T06:06:29.402Z,101414.75
2022-09-17T06:08:55.750Z,101422.69
2022-09-17T06:11:22.092Z,101423.50
2022-09-17T06:13:49.774Z,101434.91
2022-09-17T06:16:16.572Z,101429.63
2022-09-17T06:18:43.108Z,101428.78
2022-09-17T06:21:09.418Z,101434.06
2022-09-17T06:23:35.815Z,101436.72
2022-09-17T06:26:03.012Z,101429.72
2022-09-17T06:28:29.822Z,101433.28
2022-09-17T06:31:01.201Z,101434.19
2022-09-17T06:33:29.863Z,101429.84
2022-09-17T06:36:00.102Z,101423.75
2022-09-17T06:38:30.613Z,101435.19
2022-09-17T06:40:57.038Z,101436.97
2022-09-17T06:43:24.378Z,101437.00
2022-09-17T06:45:59.043Z,101443.16
2022-09-17T06:48:27.290Z,101445.84
2022-09-17T06:50:54.636Z,101450.34
2022-09-17T06:53:21.987Z,101469.84
2022-09-17T06:55:51.327Z,101453.16
2022-09-17T06:58:19.061Z,101453.19
2022-09-17T07:00:48.086Z,101446.09
2022-09-17T07:03:14.434Z,101451.38
2022-09-17T07:05:44.155Z,101447.78
2022-09-17T07:08:11.178Z,101454.84
2022-09-17T07:10:37.567Z,101453.13
2022-09-17T07:13:04.154Z,101459.44
2022-09-17T07:15:30.886Z,101449.03
2022-09-17T07:17:57.205Z,101447.31
2022-09-17T07:20:23.728Z,101441.91
2022-09-17T07:22:57.752Z,101448.63
2022-09-17T07:25:27.522Z,101443.88
2022-09-17T07:27:54.987Z,101437.66
2022-09-17T07:30:21.883Z,101443.69
2022-09-17T07:32:50.043Z,101439.91
2022-09-17T07:35:16.996Z,101447.09
2022-09-17T07:37:43.615Z,101435.59
2022-09-17T07:40:10.224Z,101437.19
2022-09-17T07:42:36.641Z,101378.09
2022-09-17T07:45:03.249Z,101444.59
2022-09-17T07:47:29.750Z,101430.84
2022-09-17T07:49:56.051Z,101431.63
2022-09-17T07:52:22.372Z,101428.03
2022-09-17T07:54:48.723Z,101433.28
2022-09-17T07:57:15.132Z,101436.69
2022-09-17T07:59:41.470Z,101428.97
2022-09-17T08:02:20.625Z,101434.63
2022-09-17T08:04:49.593Z,101442.50
2022-09-17T08:07:15.959Z,101442.97
2022-09-17T08:09:42.272Z,101446.63
2022-09-17T08:12:08.684Z,101456.84
2022-09-17T08:14:35.024Z,101463.78
2022-09-17T08:17:01.387Z,101461.41
2022-09-17T08:19:31.171Z,101452.34
2022-09-17T08:21:57.575Z,101454.84
2022-09-17T08:24:24.104Z,101445.72
2022-09-17T08:26:50.452Z,101447.53
2022-09-17T08:29:16.920Z,101443.00
2022-09-17T08:31:43.471Z,101446.97
2022-09-17T08:34:11.603Z,101444.31
2022-09-17T08:36:38.326Z,101450.50
2022-09-17T08:39:04.726Z,101448.50
2022-09-17T08:41:46.460Z,101456.81
2022-09-17T08:44:25.033Z,101451.78
2022-09-17T08:46:58.544Z,101451.84
2022-09-17T08:49:33.263Z,101445.50
2022-09-17T08:52:37.094Z,101452.88
2022-09-17T08:55:11.194Z,101465.50
2022-09-17T08:58:07.797Z,101451.66
2022-09-17T09:01:04.415Z,101461.13
2022-09-17T09:03:39.873Z,101465.69
2022-09-17T09:06:10.627Z,101467.81
2022-09-17T09:08:45.566Z,101463.25
2022-09-17T09:11:21.392Z,101469.50
2022-09-17T09:13:53.064Z,101472.84
2022-09-17T09:16:23.489Z,101470.66
2022-09-17T09:18:54.852Z,101463.53
2022-09-17T09:21:24.226Z,101459.66
2022-09-17T09:24:02.196Z,101458.56
2022-09-17T09:26:47.811Z,101460.16
2022-09-17T09:29:42.028Z,101458.41
2022-09-17T09:32:33.129Z,101456.16
2022-09-17T09:35:02.699Z,101454.31
2022-09-17T09:37:33.529Z,101464.38
2022-09-17T09:40:22.598Z,101489.59
2022-09-17T09:42:53.334Z,101492.97
2022-09-17T09:45:33.379Z,101497.25
2022-09-17T09:48:41.056Z,101499.97
2022-09-17T09:51:23.430Z,101498.56
2022-09-17T09:54:07.760Z,101497.31
2022-09-17T09:56:55.860Z,101494.03
2022-09-17T09:59:22.311Z,101494.78
2022-09-17T10:01:48.959Z,101482.38
2022-09-17T10:04:18.495Z,101480.31
2022-09-17T10:06:46.100Z,101470.53
2022-09-17T10:09:15.029Z,101477.97
2022-09-17T10:11:42.353Z,101475.69
2022-09-17T10:14:26.307Z,101478.88
2022-09-17T10:17:12.923Z,101475.91
2022-09-17T10:19:39.469Z,101480.66
2022-09-17T10:22:29.467Z,101482.19
2022-09-17T10:24:57.834Z,101477.47
2022-09-17T10:27:25.556Z,101483.19
2022-09-17T10:29:57.357Z,101475.34
2022-09-17T10:32:23.912Z,101476.41
2022-09-17T10:35:05.934Z,101473.75
2022-09-17T10:37:45.905Z,101473.84
2022-09-17T10:40:32.655Z,101464.75
2022-09-17T10:43:11.293Z,101461.31
2022-09-17T10:45:40.628Z,101457.53
2022-09-17T10:48:16.495Z,101452.88
2022-09-17T10:50:49.145Z,101450.06
2022-09-17T10:53:17.184Z,101445.69
2022-09-17T10:55:56.927Z,101442.59
2022-09-17T10:58:42.592Z,101437.56
2022-09-17T11:01:28.136Z,101439.38
2022-09-17T11:04:22.483Z,101435.25
2022-09-17T11:07:10.671Z,101423.25
2022-09-17T11:10:04.791Z,101435.34
2022-09-17T11:13:03.282Z,101431.38
2022-09-17T11:15:39.809Z,101424.63
2022-09-17T11:18:24.533Z,101429.00
2022-09-17T11:21:01.856Z,101428.38
2022-09-17T11:23:47.334Z,101430.31
2022-09-17T11:26:25.937Z,101432.03
2022-09-17T11:29:15.344Z,101434.69
2022-09-17T11:31:53.177Z,101423.00
2022-09-17T11:34:29.479Z,101451.44
2022-09-17T11:36:58.779Z,101455.22
2022-09-17T11:39:58.337Z,101454.25
2022-09-17T11:42:33.231Z,101446.56
2022-09-17T11:45:20.112Z,101437.88
2022-09-17T11:47:54.405Z,101460.50
2022-09-17T11:50:23.654Z,101459.03
2022-09-17T11:53:16.182Z,101463.28
2022-09-17T11:55:53.735Z,101455.06
2022-09-17T11:58:40.322Z,101449.88
2022-09-17T12:01:17.067Z,101446.00
2022-09-17T12:03:50.879Z,101451.72
2022-09-17T12:06:29.105Z,101451.84
2022-09-17T12:09:10.381Z,101435.22
2022-09-17T12:11:45.452Z,101434.13
2022-09-17T12:14:23.596Z,101430.13
2022-09-17T12:16:56.852Z,101442.88
2022-09-17T12:19:32.485Z,101440.16
2022-09-17T12:22:06.932Z,101442.13
2022-09-17T12:24:35.897Z,101436.56
2022-09-17T12:27:21.239Z,101431.50
2022-09-17T12:30:12.706Z,101431.56
2022-09-17T12:33:06.697Z,101433.91
2022-09-17T12:36:04.620Z,101426.13
2022-09-17T12:39:31.342Z,101427.75
2022-09-17T12:42:06.472Z,101428.25
2022-09-17T12:44:32.921Z,101433.50
2022-09-17T12:47:31.683Z,101437.44
2022-09-17T12:50:04.986Z,101433.03
2022-09-17T12:52:58.542Z,101425.50
2022-09-17T12:55:40.020Z,101430.47
2022-09-17T12:58:21.962Z,101432.22
2022-09-17T13:00:55.679Z,101421.63
2022-09-17T13:03:45.326Z,101424.16
2022-09-17T13:06:45.512Z,101435.16
2022-09-17T13:09:55.652Z,101419.75
2022-09-17T13:12:28.140Z,101426.59
2022-09-17T13:15:24.179Z,101423.13
2022-09-17T13:18:23.624Z,101438.63
2022-09-17T13:21:03.543Z,101428.72
2022-09-17T13:23:53.606Z,101429.38
2022-09-17T13:26:23.131Z,101434.22
2022-09-17T13:28:51.650Z,101434.44
2022-09-17T13:31:36.811Z,101456.06
2022-09-17T13:34:04.155Z,101450.50
2022-09-17T13:36:45.538Z,101447.59
2022-09-17T13:39:32.220Z,101456.75
2022-09-17T13:42:10.938Z,101457.31
2022-09-17T13:44:42.603Z,101459.34
2022-09-17T13:47:11.113Z,101456.84
2022-09-17T13:49:45.414Z,101450.84
2022-09-17T13:52:12.337Z,101457.84
2022-09-17T13:54:39.318Z,101462.25
2022-09-17T13:57:09.364Z,101457.97
2022-09-17T13:59:37.658Z,101474.38
2022-09-17T14:02:13.203Z,101475.03
2022-09-17T14:04:42.625Z,101476.00
2022-09-17T14:07:23.475Z,101467.94
2022-09-17T14:09:55.631Z,101466.81
2022-09-17T14:12:44.369Z,101461.53
2022-09-17T14:15:41.430Z,101465.31
2022-09-17T14:18:26.519Z,101461.69
2022-09-17T14:21:09.286Z,101452.88
2022-09-17T14:23:43.864Z,101466.09
2022-09-17T14:26:18.077Z,101460.88
2022-09-17T14:29:00.294Z,101462.69
2022-09-17T14:31:34.026Z,101457.47
2022-09-17T14:34:04.809Z,101459.16
2022-09-17T14:36:35.669Z,101464.38
2022-09-17T14:39:04.724Z,101462.81
2022-09-17T14:41:39.808Z,101454.81
2022-09-17T14:44:14.831Z,101449.50
2022-09-17T14:46:52.095Z,101451.19
2022-09-17T14:49:27.108Z,101444.28
2022-09-17T14:51:55.682Z,101452.41
2022-09-17T14:54:36.055Z,101450.72
2022-09-17T14:57:27.167Z,101456.16
2022-09-17T14:59:57.600Z,101453.69
2022-09-17T15:02:34.408Z,101457.16
2022-09-17T15:05:02.416Z,101451.63
2022-09-17T15:07:31.564Z,101442.72
2022-09-17T15:10:20.092Z,101452.56
2022-09-17T15:12:47.590Z,101461.50
2022-09-17T15:15:20.765Z,101450.75
2022-09-17T15:17:48.875Z,101443.63
2022-09-17T15:20:20.229Z,101467.47
2022-09-17T15:22:55.525Z,101465.88
2022-09-17T15:25:25.072Z,101465.25
2022-09-17T15:27:56.535Z,101457.53
2022-09-17T15:30:25.263Z,101463.94
2022-09-17T15:32:54.330Z,101469.38
2022-09-17T15:35:28.084Z,101473.00
2022-09-17T15:40:49.413Z,101468.94
2022-09-17T15:43:25.178Z,101470.06
2022-09-17T15:45:51.503Z,101469.19
2022-09-17T15:48:30.186Z,101462.03
2022-09-17T15:50:58.553Z,101462.03
2022-09-17T15:53:26.510Z,101464.66
2022-09-17T15:56:04.984Z,101470.00
2022-09-17T15:58:37.696Z,101458.63
2022-09-17T16:01:16.412Z,101469.28
2022-09-17T16:03:46.160Z,101461.44
2022-09-17T16:06:18.385Z,101461.50
2022-09-17T16:08:59.154Z,101460.53
2022-09-17T16:11:28.041Z,101463.25
2022-09-17T16:13:56.005Z,101457.91
2022-09-17T16:16:33.268Z,101464.97
2022-09-17T16:19:00.051Z,101462.31
2022-09-17T16:21:26.743Z,101461.41
2022-09-17T16:23:54.003Z,101462.22
2022-09-17T16:26:23.388Z,101480.97
2022-09-17T16:28:53.624Z,101482.88
2022-09-17T16:31:20.853Z,101487.47
2022-09-17T16:33:47.193Z,101491.03
2022-09-17T16:36:16.683Z,101501.69
2022-09-17T16:38:43.060Z,101502.63
2022-09-17T16:41:09.891Z,101509.75
2022-09-17T16:43:38.316Z,101509.00
2022-09-17T16:46:12.214Z,101507.28
2022-09-17T16:48:38.859Z,101514.44
2022-09-17T16:51:11.997Z,101508.34
2022-09-17T16:53:39.736Z,101513.69
2022-09-17T16:56:07.664Z,101506.69
2022-09-17T16:58:34.476Z,101520.84
2022-09-17T17:01:12.261Z,101517.38
2022-09-17T17:03:39.400Z,101527.13
2022-09-17T17:06:05.991Z,101514.81
2022-09-17T17:08:33.391Z,101520.13
2022-09-17T17:11:00.372Z,101525.41
2022-09-17T17:13:27.693Z,101524.53
2022-09-17T17:15:54.515Z,101522.75
2022-09-17T17:18:21.537Z,101516.56
2022-09-17T17:20:48.683Z,101516.63
2022-09-17T17:23:15.846Z,101518.34
2022-09-17T17:25:42.226Z,101521.00
2022-09-17T17:28:08.683Z,101526.34
2022-09-17T17:30:35.298Z,101528.13
2022-09-17T17:33:06.402Z,101526.41
2022-09-17T17:35:32.712Z,101524.66
2022-09-17T17:37:59.230Z,101515.03
2022-09-17T17:40:26.536Z,101511.53
2022-09-17T17:42:53.037Z,101515.09
2022-09-17T17:45:19.342Z,101513.31
2022-09-17T17:47:45.811Z,101513.28
2022-09-17T17:50:12.374Z,101516.81
2022-09-17T17:52:40.167Z,101520.38
2022-09-17T17:55:07.377Z,101521.28
2022-09-17T17:57:33.698Z,101516.88
2022-09-17T18:00:00.123Z,101523.06
2022-09-17T18:02:26.641Z,101535.44
2022-09-17T18:04:53.057Z,101539.84
2022-09-17T18:07:19.461Z,101535.44
2022-09-17T18:09:46.430Z,101537.22
2022-09-17T18:12:12.788Z,101529.31
2022-09-17T18:14:39.168Z,101522.22
2022-09-17T18:17:05.545Z,101521.38
2022-09-17T18:19:31.922Z,101529.34
2022-09-17T18:21:58.284Z,101535.53
2022-09-17T18:24:24.611Z,101536.41
2022-09-17T18:26:51.014Z,101526.66
2022-09-17T18:29:17.346Z,101534.63
2022-09-17T18:31:45.034Z,101529.31
2022-09-17T18:34:27.613Z,101530.19
2022-09-17T18:36:54.238Z,101531.06
2022-09-17T18:39:56.754Z,101534.63
2022-09-17T18:42:08.431Z,101536.41
2022-09-17T18:44:34.971Z,101527.56
2022-09-17T18:47:01.418Z,101527.56
2022-09-17T18:49:27.821Z,101536.38
2022-09-17T18:51:54.171Z,101524.03
2022-09-17T18:54:20.660Z,101542.56
2022-09-17T18:56:46.961Z,101533.75
2022-09-17T18:59:13.587Z,101528.44
2022-09-17T19:01:40.041Z,101537.28
2022-09-17T19:04:10.242Z,101545.19
2022-09-17T19:06:36.701Z,101545.22
2022-09-17T19:09:04.619Z,101541.69
2022-09-17T19:11:31.064Z,101552.25
2022-09-17T19:13:57.901Z,101552.25
2022-09-17T19:16:24.442Z,101552.25
2022-09-17T19:18:51.340Z,101554.03
2022-09-17T19:21:20.578Z,101542.53
2022-09-17T19:23:49.778Z,101548.72
2022-09-17T19:26:22.069Z,101550.47
2022-09-17T19:28:54.733Z,101547.81
2022-09-17T19:31:21.655Z,101547.81
2022-09-17T19:33:48.275Z,101554.88
2022-09-17T19:36:17.265Z,101562.81
2022-09-17T19:38:44.727Z,101560.16
2022-09-17T19:41:16.665Z,101567.22
2022-09-17T19:43:45.329Z,101573.44
2022-09-17T19:46:17.882Z,101578.69
2022-09-17T19:48:55.903Z,101578.72
2022-09-17T19:51:24.734Z,101576.94
2022-09-17T19:53:52.964Z,101564.56
2022-09-17T19:56:22.758Z,101568.97
2022-09-17T19:58:49.358Z,101567.19
2022-09-17T20:01:16.684Z,101563.66
2022-09-17T20:03:44.824Z,101558.38
2022-09-17T20:06:13.896Z,101567.19
2022-09-17T20:08:48.725Z,101566.31
2022-09-17T20:11:16.250Z,101568.03
2022-09-17T20:13:43.190Z,101565.41
2022-09-17T20:16:16.165Z,101563.63
2022-09-17T20:18:43.989Z,101559.22
2022-09-17T20:21:19.346Z,101557.44
2022-09-17T20:23:45.753Z,101551.28
2022-09-17T20:26:12.927Z,101552.19
2022-09-17T20:28:39.759Z,101553.94
2022-09-17T20:31:17.513Z,101556.56
2022-09-17T20:33:45.032Z,101560.09
2022-09-17T20:36:13.796Z,101549.50
2022-09-17T20:41:27.814Z,101547.72
2022-09-17T20:43:54.609Z,101543.31
2022-09-17T20:46:28.307Z,101548.59
2022-09-17T20:48:57.256Z,101555.63
2022-09-17T20:51:25.411Z,101552.13
2022-09-17T20:53:52.470Z,101556.53
2022-09-17T20:56:24.399Z,101555.66
2022-09-17T20:59:03.670Z,101562.72
2022-09-17T21:01:32.736Z,101566.22
2022-09-17T21:04:00.736Z,101565.38
2022-09-17T21:06:29.635Z,101565.34
2022-09-17T21:08:56.341Z,101575.06
2022-09-17T21:11:24.192Z,101574.22
2022-09-17T21:13:51.388Z,101577.75
2022-09-17T21:16:18.597Z,101576.88
2022-09-17T21:18:45.251Z,101572.47
2022-09-17T21:21:13.430Z,101572.47
2022-09-17T21:23:40.731Z,101570.69
2022-09-17T21:26:20.946Z,101578.63
2022-09-17T21:29:07.805Z,101582.09
2022-09-17T21:31:37.044Z,101584.69
2022-09-17T21:34:07.468Z,101583.75
2022-09-17T21:36:36.457Z,101581.09
2022-09-17T21:39:06.337Z,101581.06
2022-09-17T21:41:33.070Z,101583.72
2022-09-17T21:43:59.577Z,101580.19
2022-09-17T21:46:28.309Z,101582.84
2022-09-17T21:48:57.433Z,101576.69
2022-09-17T21:51:26.310Z,101571.41
2022-09-17T21:53:55.226Z,101582.88
2022-09-17T21:56:22.174Z,101574.94
2022-09-17T21:58:53.824Z,101579.34
2022-09-17T22:01:22.934Z,101570.53
2022-09-17T22:03:49.664Z,101574.06
2022-09-17T22:06:18.678Z,101574.06
2022-09-17T22:08:45.717Z,101571.41
2022-09-17T22:11:17.187Z,101558.19
2022-09-17T22:13:54.707Z,101560.84
2022-09-17T22:16:23.182Z,101573.19
2022-09-17T22:18:51.224Z,101564.38
2022-09-17T22:21:22.611Z,101553.81
2022-09-17T22:23:50.427Z,101560.81
2022-09-17T22:26:17.909Z,101555.53
2022-09-17T22:28:44.788Z,101556.44
2022-09-17T22:31:12.473Z,101553.81
2022-09-17T22:33:41.875Z,101561.75
2022-09-17T22:36:22.648Z,101568.75
2022-09-17T22:38:51.885Z,101567.91
2022-09-17T22:41:27.441Z,101572.31
2022-09-17T22:43:55.124Z,101570.53
2022-09-17T22:46:25.346Z,101568.84
2022-09-17T22:48:52.336Z,101565.31
2022-09-17T22:51:19.135Z,101573.25
2022-09-17T22:53:45.789Z,101574.97
2022-09-17T22:56:17.298Z,101577.66
2022-09-17T22:58:47.871Z,101577.66
2022-09-17T23:01:17.193Z,101569.72
2022-09-17T23:03:44.894Z,101567.88
2022-09-17T23:06:14.111Z,101567.88
2022-09-17T23:08:41.019Z,101559.91
2022-09-17T23:11:09.975Z,101551.09
2022-09-17T23:13:36.479Z,101545.81
2022-09-17T23:16:09.569Z,101547.56
2022-09-17T23:18:38.647Z,101551.09
2022-09-17T23:21:07.726Z,101562.56
2022-09-17T23:23:35.623Z,101559.03
2022-09-17T23:26:07.838Z,101561.69
2022-09-17T23:28:35.779Z,101560.81
2022-09-17T23:31:22.636Z,101561.69
2022-09-17T23:33:49.627Z,101559.97
2022-09-17T23:36:21.617Z,101558.19
2022-09-17T23:38:48.357Z,101555.56
2022-09-17T23:41:20.005Z,101552.00
2022-09-17T23:43:52.771Z,101537.91
2022-09-17T23:46:20.772Z,101531.72
2022-09-17T23:48:48.433Z,101535.25
2022-09-17T23:51:16.383Z,101535.28
2022-09-17T23:53:43.374Z,101531.75
2022-09-17T23:56:14.988Z,101537.03
2022-09-17T23:58:41.924Z,101550.25
